METAR Data
IDs: Format: Raw Decoded Include TAF

Data at: 0721 UTC 23 Feb 2019

PAVC 230656Z AUTO 08017KT 10SM OVC017 03/00 A3011 RMK AO2 SLP200 T00280000
PAVC 230556Z AUTO 10018G22KT 10SM SCT015 OVC021 03/01 A3011 RMK AO2 SLP200 60001 T00280011 10028 20028 55004
PAVC 230506Z AUTO 10018G22KT 7SM FEW007 OVC018 03/02 A3010 RMK AO2
PAVC 230456Z AUTO 09017KT 8SM FEW005 BKN013 OVC020 03/02 A3010 RMK AO2 UPE54RAB30E43 SLP199 P0000 T00280017
PAVC 230440Z AUTO 07017KT 3SM -RA BR OVC005 03/02 A3010 RMK AO2 UPE30RAB30 CIG 004V010 P0000
PAVC 230356Z AUTO 09016G21KT 1 1/2SM UP BR OVC005 03/02 A3010 RMK AO2 RAE44UPB11E20B44 CIG 003V009 SLP198 P0000 T00280022
PAVC 230348Z AUTO 09016KT 1 1/4SM UP BR OVC005 03/02 A3010 RMK AO2 RAE44UPB11E20B44 CIG 003V007 P0000
PAVC 230313Z AUTO 09014G20KT 1 1/4SM UP BR OVC003 03/02 A3011 RMK AO2 RAE11UPB11 CIG 003V007 P0000
PAVC 230256Z AUTO 09011G21KT 1SM -RA BR OVC003 03/02 A3012 RMK AO2 UPB44E53 SLP203 P0001 60001 T00280022 51001
PAVC 230223Z AUTO 09013KT 1SM -RA BR OVC003 03/02 A3011 RMK AO2 P0001
PAVC 230156Z AUTO 08015KT 1 1/4SM -RA BR OVC003 03/02 A3012 RMK AO2 UPE01RAB01 SLP203 P0000 T00280022
PAVC 230136Z AUTO 07015G20KT 1 1/4SM -RA BR OVC003 03/02 A3012 RMK AO2 UPE01RAB01 P0000
PAVC 230120Z AUTO 09015G20KT 1 1/4SM -RA BR OVC005 03/02 A3012 RMK AO2 UPE01RAB01 CIG 003V009 P0000
PAVC 230056Z AUTO 08014G21KT 1 1/2SM UP BR OVC007 03/02 A3011 RMK AO2 UPE23B46RAB23E46 CIG 004V010 SLP203 P0000 T00280022
PAVC 230052Z AUTO 09017G21KT 1 3/4SM UP BR OVC007 03/02 A3011 RMK AO2 UPE23B46RAB23E46 CIG 004V011 P0000
PAVC 230045Z AUTO 09017G20KT 2SM -RA BR OVC007 03/02 A3012 RMK AO2 VIS 1 1/4V3 UPE23RAB23 CIG 005V011 P0000
PAVC 230026Z AUTO 08017KT 1 3/4SM -RA BR OVC010 03/02 A3012 RMK AO2 UPE23RAB23 P0000
PAVC 222356Z AUTO 08014KT 3SM UP BR OVC010 03/02 A3013 RMK AO2 RAE49UPB49 CIG 008V013 SLP208 P0000 60000 T00280017 10033 20022 58015
PAVC 222309Z AUTO 08017G20KT 2 1/2SM -RA BR OVC014 03/01 A3015 RMK AO2 VIS 1 3/4V4 P0000
PAVC 222256Z AUTO 08018G23KT 6SM -RA BR OVC018 03/01 A3015 RMK AO2 RAB52 SLP216 P0000 T00330011
PAVC 222156Z AUTO 08012KT 10SM OVC018 03/01 A3017 RMK AO2 RAB37E52 SLP223 P0000 T00330006
PAVC 222056Z AUTO 09014KT 10SM OVC020 03/00 A3017 RMK AO2 RAB41E52 SLP223 P0000 60000 T00280000 56003
PAVC 221956Z AUTO 09013KT 10SM BKN024 OVC030 03/M01 A3018 RMK AO2 SLP224 T00281011
PAVC 221940Z AUTO 09012KT 10SM BKN024 OVC033 03/M01 A3017 RMK AO2
PAVC 221923Z AUTO 09014KT 10SM SCT024 BKN030 OVC034 03/M01 A3017 RMK AO2
PAVC 221856Z AUTO 10011KT 10SM BKN024 OVC031 02/M01 A3018 RMK AO2 SLP224 T00221011 FZRANO
PAVC 221845Z AUTO 10011KT 10SM BKN026 OVC031 02/M02 A3018 RMK AO2 FZRANO
PAVC 221815Z AUTO 09011KT 10SM OVC030 02/M02 A3018 RMK AO2 FZRANO
PAVC 221803Z AUTO 09010KT 10SM OVC028 02/M02 A3018 RMK AO2 FZRANO
PAVC 221756Z AUTO 10011KT 10SM BKN030 OVC035 02/M02 A3018 RMK AO2 SLP225 T00221022 10028 20022 58005 FZRANO
PAVC 221724Z AUTO 10011G16KT 10SM OVC030 02/M03 A3019 RMK AO2 FZRANO
PAVC 221656Z AUTO 11008KT 10SM OVC028 02/M03 A3019 RMK AO2 SLP230 T00221028 FZRANO
PAVC 221652Z AUTO 10010KT 10SM OVC028 02/M03 A3019 RMK AO2 FZRANO
PAVC 221621Z AUTO 10011G17KT 10SM OVC030 03/M03 A3019 RMK AO2
PAVC 221556Z AUTO 10006KT 10SM OVC028 03/M03 A3020 RMK AO2 SLP231 T00281028
PAVC 221552Z AUTO 11006G15KT 10SM OVC028 03/M03 A3020 RMK AO2
PAVC 221456Z AUTO 14007G15KT 10SM OVC030 03/M03 A3021 RMK AO2 SLP236 T00281033 58014
PAVC 221356Z AUTO 12009G15KT 10SM OVC032 03/M03 A3023 RMK AO2 SLP241 T00281033
PAVC 221256Z AUTO 00000KT 10SM OVC034 03/M04 A3024 RMK AO2 SLP247 T00281039
PAVC 221156Z AUTO 02003KT 10SM OVC034 02/M04 A3025 RMK AO2 SLP249 T00221039 10028 20022 58006 FZRANO
PAVC 221056Z AUTO 10003KT 10SM BKN032 OVC039 03/M04 A3026 RMK AO2 SLP252 T00281039
PAVC 220956Z AUTO VRB03KT 10SM OVC034 03/M04 A3027 RMK AO2 SLP256 T00281039
PAVC 220856Z AUTO VRB03KT 10SM OVC038 02/M04 A3027 RMK AO2 SLP256 T00221039 400280000 56005 FZRANO
PAVC 220756Z AUTO VRB05KT 10SM BKN035 OVC043 03/M03 A3028 RMK AO2 SLP258 T00281033
PAVC 220710Z AUTO 19009KT 10SM FEW027 OVC039 03/M03 A3028 RMK AO2
PAVC 220656Z AUTO 00000KT 10SM BKN029 OVC037 03/M03 A3027 RMK AO2 SLP257 T00281028
PAVC 220556Z AUTO VRB05KT 10SM BKN035 OVC042 03/M03 A3029 RMK AO2 SLP261 T00281033 10028 20022 55005
PAVC 220456Z AUTO 28007KT 10SM BKN035 OVC044 02/M04 A3029 RMK AO2 SLP261 T00221039 FZRANO
PAVC 220356Z AUTO 27011G18KT 10SM OVC038 03/M04 A3029 RMK AO2 SLP263 T00281039
PAVC 220256Z AUTO VRB06KT 10SM FEW043 03/M03 A3030 RMK AO2 SLP266 T00281033 56012
PAVC 220156Z AUTO 22008G15KT 170V260 10SM BKN030 BKN036 03/M03 A3030 RMK AO2 SLP268 T00281028
PAVC 220056Z AUTO 22010KT 10SM BKN030 BKN035 03/M03 A3032 RMK AO2 SLP273 T00281028
PAVC 212356Z AUTO 21010KT 10SM FEW028 03/M02 A3034 RMK AO2 SLP278 T00281022 10028 20006 58005
PAVC 212256Z AUTO 22011KT 10SM CLR 03/M02 A3035 RMK AO2 SLP281 T00281017
PAVC 212156Z AUTO 26004KT 10SM CLR 03/M03 A3036 RMK AO2 SLP286 T00281033
PAVC 212056Z AUTO 28004KT 10SM BKN042 02/M03 A3035 RMK AO2 SLP284 T00171028 50005 FZRANO
PAVC 211956Z AUTO 00000KT 10SM BKN036 01/M02 A3036 RMK AO2 SLP288 T00111022 FZRANO